createdAt,value
2023-03-31T00:00:47.289Z,52.19
2023-03-31T00:03:48.821Z,50.98
2023-03-31T00:06:54.231Z,49.96
2023-03-31T00:10:07.093Z,49.75
2023-03-31T00:13:17.752Z,50.03
2023-03-31T00:16:19.348Z,51.24
2023-03-31T00:19:21.187Z,50.84
2023-03-31T00:22:22.703Z,50.73
2023-03-31T00:25:24.112Z,50.23
2023-03-31T00:28:25.489Z,49.70
2023-03-31T00:31:27.964Z,49.90
2023-03-31T00:34:30.060Z,50.04
2023-03-31T00:37:35.315Z,49.72
2023-03-31T00:40:36.809Z,50.61
2023-03-31T00:43:38.799Z,53.10
2023-03-31T00:46:52.478Z,53.96
2023-03-31T00:49:59.712Z,56.58
2023-03-31T00:53:08.626Z,58.25
2023-03-31T00:56:14.842Z,59.81
2023-03-31T00:59:17.682Z,61.91
2023-03-31T01:02:21.978Z,63.30
2023-03-31T01:05:27.762Z,63.76
2023-03-31T01:08:30.480Z,64.81
2023-03-31T01:11:32.019Z,65.15
2023-03-31T01:14:34.069Z,65.76
2023-03-31T01:17:36.908Z,64.90
2023-03-31T01:21:18.625Z,65.46
2023-03-31T01:24:47.302Z,66.64
2023-03-31T01:28:02.025Z,66.41
2023-03-31T01:31:41.839Z,67.46
2023-03-31T01:35:20.263Z,69.14
2023-03-31T01:38:33.717Z,67.70
2023-03-31T01:41:38.156Z,66.42
2023-03-31T01:45:06.432Z,67.76
2023-03-31T01:48:14.750Z,67.41
2023-03-31T01:51:22.193Z,65.02
2023-03-31T01:54:39.296Z,66.99
2023-03-31T01:57:52.470Z,67.43
2023-03-31T02:01:03.617Z,68.49
2023-03-31T02:04:17.293Z,67.72
2023-03-31T02:07:24.730Z,66.23
2023-03-31T02:10:30.757Z,65.37
2023-03-31T02:13:37.150Z,66.58
2023-03-31T02:16:47.341Z,65.81
2023-03-31T02:19:52.691Z,64.29
2023-03-31T02:22:56.628Z,63.52
2023-03-31T02:26:07.055Z,62.78
2023-03-31T02:29:09.020Z,62.62
2023-03-31T02:32:21.904Z,62.77
2023-03-31T02:35:25.158Z,62.74
2023-03-31T02:38:27.209Z,63.79
2023-03-31T02:41:28.704Z,64.70
2023-03-31T02:44:31.482Z,64.96
2023-03-31T02:47:34.322Z,65.50
2023-03-31T02:50:54.696Z,65.23
2023-03-31T02:54:39.177Z,66.52
2023-03-31T02:57:51.827Z,66.47
2023-03-31T03:01:22.285Z,66.25
2023-03-31T03:04:41.878Z,66.70
2023-03-31T03:08:03.615Z,67.45
2023-03-31T03:11:18.642Z,66.73
2023-03-31T03:14:35.896Z,66.62
2023-03-31T03:17:49.894Z,65.64
2023-03-31T03:20:51.421Z,64.88
2023-03-31T03:23:53.015Z,64.17
2023-03-31T03:26:55.197Z,63.73
2023-03-31T03:29:56.621Z,62.61
2023-03-31T03:32:58.921Z,62.91
2023-03-31T03:36:00.621Z,61.92
2023-03-31T03:39:02.105Z,61.25
2023-03-31T03:42:03.820Z,61.06
2023-03-31T03:45:05.880Z,60.84
2023-03-31T03:48:07.350Z,60.48
2023-03-31T03:51:08.822Z,61.11
2023-03-31T03:54:10.370Z,60.95
2023-03-31T03:57:11.839Z,60.53
2023-03-31T04:00:13.592Z,60.77
2023-03-31T04:03:16.873Z,60.63
2023-03-31T04:06:18.367Z,61.10
2023-03-31T04:09:19.817Z,61.36
2023-03-31T04:12:21.288Z,63.16
2023-03-31T04:15:22.843Z,63.77
2023-03-31T04:18:24.289Z,64.83
2023-03-31T04:21:25.705Z,65.14
2023-03-31T04:24:32.621Z,66.06
2023-03-31T04:27:35.052Z,65.86
2023-03-31T04:30:39.695Z,66.92
2023-03-31T04:33:41.687Z,67.81
2023-03-31T04:36:48.562Z,66.12
2023-03-31T04:39:50.710Z,65.92
2023-03-31T04:42:52.300Z,67.46
2023-03-31T04:45:53.767Z,66.43
2023-03-31T04:48:55.196Z,66.95
2023-03-31T04:51:56.603Z,67.39
2023-03-31T04:54:58.004Z,66.44
2023-03-31T04:57:59.676Z,67.13
2023-03-31T05:01:01.104Z,68.13
2023-03-31T05:04:06.261Z,68.47
2023-03-31T05:07:07.726Z,68.99
2023-03-31T05:10:09.957Z,68.29
2023-03-31T05:13:11.945Z,68.96
2023-03-31T05:16:14.597Z,68.61
2023-03-31T05:19:18.158Z,68.46
2023-03-31T05:22:20.644Z,69.80
2023-03-31T05:25:22.519Z,68.56
2023-03-31T05:28:23.960Z,69.15
2023-03-31T05:31:26.193Z,70.37
2023-03-31T05:34:27.592Z,70.20
2023-03-31T05:37:29.478Z,70.37
2023-03-31T05:40:30.907Z,70.27
2023-03-31T05:43:32.519Z,69.86
2023-03-31T05:46:33.979Z,70.15
2023-03-31T05:49:35.472Z,70.44
2023-03-31T05:52:36.904Z,70.33
2023-03-31T05:55:39.008Z,70.78
2023-03-31T05:58:40.521Z,70.91
2023-03-31T06:01:42.265Z,71.34
2023-03-31T06:04:44.021Z,71.92
2023-03-31T06:07:45.712Z,72.49
2023-03-31T06:10:47.152Z,73.66
2023-03-31T06:13:49.148Z,73.59
2023-03-31T06:16:50.616Z,72.78
2023-03-31T06:19:52.049Z,73.31
2023-03-31T06:22:53.542Z,72.98
2023-03-31T06:25:59.005Z,72.76
2023-03-31T06:29:00.609Z,72.41
2023-03-31T06:32:04.950Z,71.41
2023-03-31T06:35:06.895Z,70.74
2023-03-31T06:38:08.852Z,70.28
2023-03-31T06:41:13.315Z,71.29
2023-03-31T06:44:16.590Z,71.23
2023-03-31T06:47:18.005Z,71.34
2023-03-31T06:50:19.738Z,71.24
2023-03-31T06:53:22.172Z,70.90
2023-03-31T06:56:23.811Z,69.27
2023-03-31T06:59:25.217Z,69.01
2023-03-31T07:02:26.730Z,68.28
2023-03-31T07:05:28.898Z,67.75
2023-03-31T07:08:31.013Z,66.95
2023-03-31T07:11:32.685Z,67.28
2023-03-31T07:14:34.096Z,68.43
2023-03-31T07:17:37.449Z,67.37
2023-03-31T07:20:38.921Z,67.01
2023-03-31T07:23:40.626Z,66.80
2023-03-31T07:26:42.188Z,66.22
2023-03-31T07:29:43.730Z,66.64
2023-03-31T07:32:50.083Z,66.83
2023-03-31T07:36:00.298Z,66.45
2023-03-31T07:39:09.717Z,65.67
2023-03-31T07:42:11.172Z,66.35
2023-03-31T07:45:13.405Z,65.71
2023-03-31T07:48:15.055Z,64.84
2023-03-31T07:51:19.203Z,63.84
2023-03-31T07:54:20.858Z,63.65
2023-03-31T07:57:22.528Z,62.86
2023-03-31T08:00:24.610Z,63.71
2023-03-31T08:03:26.445Z,63.85
2023-03-31T08:06:29.890Z,63.90
2023-03-31T08:09:31.374Z,63.25
2023-03-31T08:12:40.754Z,61.32
2023-03-31T08:15:42.173Z,61.77
2023-03-31T08:18:43.716Z,60.28
2023-03-31T08:21:45.373Z,60.57
2023-03-31T08:24:47.316Z,59.28
2023-03-31T08:27:51.166Z,59.57
2023-03-31T08:30:52.659Z,59.11
2023-03-31T08:33:54.162Z,59.21
2023-03-31T08:36:55.595Z,59.17
2023-03-31T08:39:57.159Z,58.42
2023-03-31T08:43:06.450Z,56.95
2023-03-31T08:46:12.297Z,55.82
2023-03-31T08:49:17.696Z,55.18
2023-03-31T08:52:24.686Z,53.82
2023-03-31T08:55:34.433Z,53.90
2023-03-31T08:58:47.771Z,55.20
2023-03-31T09:02:06.111Z,53.79
2023-03-31T09:05:45.945Z,55.21
2023-03-31T09:09:01.792Z,55.10
2023-03-31T09:12:11.205Z,55.47
2023-03-31T09:15:27.887Z,53.88
2023-03-31T09:18:35.374Z,53.98
2023-03-31T09:21:43.712Z,52.13
2023-03-31T09:25:10.275Z,50.92
2023-03-31T09:28:30.906Z,51.09
2023-03-31T09:31:32.833Z,50.00
2023-03-31T09:34:34.637Z,46.96
2023-03-31T09:37:36.248Z,46.80
2023-03-31T09:40:38.057Z,45.16
2023-03-31T09:43:41.403Z,45.71
2023-03-31T09:46:43.179Z,44.84
2023-03-31T09:49:53.574Z,45.71
2023-03-31T09:52:59.709Z,45.24
2023-03-31T09:56:03.790Z,45.22
2023-03-31T09:59:05.408Z,45.04
2023-03-31T10:02:25.444Z,46.44
2023-03-31T10:05:33.930Z,46.13
2023-03-31T10:08:39.624Z,47.05
2023-03-31T10:11:52.813Z,51.40
2023-03-31T10:15:11.884Z,52.39
2023-03-31T10:18:18.877Z,53.79
2023-03-31T10:21:26.061Z,52.95
2023-03-31T10:24:38.043Z,52.86
2023-03-31T10:27:41.907Z,59.77
2023-03-31T10:30:48.520Z,62.68
2023-03-31T10:33:51.986Z,64.92
2023-03-31T10:36:53.600Z,65.23
2023-03-31T10:40:06.578Z,65.31
2023-03-31T10:43:17.152Z,65.16
2023-03-31T10:46:19.326Z,67.38
2023-03-31T10:49:20.832Z,67.04
2023-03-31T10:52:24.876Z,68.37
2023-03-31T10:55:31.345Z,68.59
2023-03-31T10:59:04.500Z,68.09
2023-03-31T11:02:46.687Z,66.67
2023-03-31T11:05:52.405Z,65.51
2023-03-31T11:09:22.493Z,65.55
2023-03-31T11:12:26.848Z,65.02
2023-03-31T11:15:59.885Z,65.20
2023-03-31T11:19:07.299Z,66.56
2023-03-31T11:22:28.966Z,64.69
2023-03-31T11:25:39.882Z,65.87
2023-03-31T11:28:44.275Z,65.19
2023-03-31T11:32:20.436Z,63.85
2023-03-31T11:35:56.741Z,62.24
2023-03-31T11:39:17.024Z,62.50
2023-03-31T11:42:25.971Z,64.17
2023-03-31T11:45:36.222Z,62.96
2023-03-31T11:49:01.797Z,60.18
2023-03-31T11:52:09.873Z,58.08
2023-03-31T11:55:11.209Z,55.02
2023-03-31T11:58:21.906Z,54.90
2023-03-31T12:01:57.814Z,55.61
2023-03-31T12:04:59.773Z,58.28
2023-03-31T12:08:12.209Z,58.84
2023-03-31T12:11:16.365Z,57.95
2023-03-31T12:14:17.697Z,57.33
2023-03-31T12:17:25.658Z,57.75
2023-03-31T12:20:57.719Z,58.84
2023-03-31T12:23:59.186Z,59.32
2023-03-31T12:27:14.754Z,57.91
2023-03-31T12:30:31.382Z,58.91
2023-03-31T12:33:41.166Z,58.49
2023-03-31T12:36:55.705Z,59.80
2023-03-31T12:40:24.045Z,59.30
2023-03-31T12:43:52.513Z,60.89
2023-03-31T12:47:18.841Z,66.59
2023-03-31T12:50:32.340Z,68.16
2023-03-31T12:53:52.458Z,70.28
2023-03-31T12:57:00.023Z,69.40
2023-03-31T13:00:13.746Z,68.36
2023-03-31T13:03:37.157Z,70.58
2023-03-31T13:06:38.559Z,70.39
2023-03-31T13:09:48.501Z,68.47
2023-03-31T13:13:14.373Z,68.35
2023-03-31T13:16:21.002Z,68.58
2023-03-31T13:19:34.743Z,67.57
2023-03-31T13:22:40.352Z,67.05
2023-03-31T13:25:50.618Z,67.91
2023-03-31T13:29:19.328Z,67.48
2023-03-31T13:32:23.276Z,67.97
2023-03-31T13:35:30.936Z,67.46
2023-03-31T13:39:00.358Z,67.66
2023-03-31T13:42:16.702Z,67.47
2023-03-31T13:45:45.319Z,65.97
2023-03-31T13:49:17.539Z,68.63
2023-03-31T13:52:33.413Z,68.26
2023-03-31T13:55:56.440Z,68.92
2023-03-31T13:59:06.039Z,66.66
2023-03-31T14:02:26.478Z,65.53
2023-03-31T14:05:33.908Z,64.79
2023-03-31T14:08:57.366Z,62.76
2023-03-31T14:12:00.302Z,62.26
2023-03-31T14:15:03.532Z,61.84
2023-03-31T14:18:06.883Z,61.87
2023-03-31T14:21:17.901Z,61.01
2023-03-31T14:24:26.289Z,60.75
2023-03-31T14:28:02.429Z,60.46
2023-03-31T14:31:26.878Z,62.02
2023-03-31T14:34:45.535Z,61.44
2023-03-31T14:37:48.907Z,60.97
2023-03-31T14:40:54.502Z,59.71
2023-03-31T14:44:00.472Z,59.22
2023-03-31T14:47:02.004Z,59.72
2023-03-31T14:50:12.950Z,59.06
2023-03-31T14:53:22.957Z,58.36
2023-03-31T14:56:37.379Z,58.20
2023-03-31T14:59:39.006Z,58.33
2023-03-31T15:02:43.402Z,58.89
2023-03-31T15:05:49.849Z,58.68
2023-03-31T15:08:56.341Z,57.97
2023-03-31T15:12:04.149Z,56.23
2023-03-31T15:15:06.693Z,55.80
2023-03-31T15:18:12.583Z,56.35
2023-03-31T15:21:25.774Z,55.69
2023-03-31T15:24:29.040Z,55.96
2023-03-31T15:27:39.854Z,60.83
2023-03-31T15:30:42.303Z,65.44
2023-03-31T15:33:44.077Z,67.75
2023-03-31T15:36:45.839Z,70.93
2023-03-31T15:39:48.768Z,70.62
2023-03-31T15:43:06.475Z,68.82
2023-03-31T15:46:45.523Z,68.03
2023-03-31T15:49:55.326Z,66.61
2023-03-31T15:52:58.112Z,67.21
2023-03-31T15:56:00.287Z,67.16
2023-03-31T15:59:04.359Z,66.91
2023-03-31T16:02:11.852Z,68.16
2023-03-31T16:05:37.409Z,68.00
2023-03-31T16:09:08.935Z,68.08
2023-03-31T16:12:43.031Z,69.38
2023-03-31T16:15:49.546Z,68.70
2023-03-31T16:18:54.727Z,68.14
2023-03-31T16:22:01.865Z,68.18
2023-03-31T16:25:09.136Z,68.03
2023-03-31T16:28:16.661Z,68.41
2023-03-31T16:31:36.534Z,68.13
2023-03-31T16:35:07.752Z,69.08
2023-03-31T16:38:11.583Z,68.47
2023-03-31T16:41:15.742Z,68.70
2023-03-31T16:44:17.181Z,69.36
2023-03-31T16:47:31.581Z,70.12
2023-03-31T16:50:41.154Z,71.56
2023-03-31T16:53:42.849Z,71.41
2023-03-31T16:56:44.287Z,70.14
2023-03-31T16:59:45.786Z,69.34
2023-03-31T17:02:47.551Z,69.06
2023-03-31T17:05:55.183Z,69.39
2023-03-31T17:08:58.642Z,69.06
2023-03-31T17:12:00.392Z,68.47
2023-03-31T17:15:01.906Z,67.90
2023-03-31T17:18:04.547Z,67.98
2023-03-31T17:21:14.041Z,69.01
2023-03-31T17:24:15.478Z,68.71
2023-03-31T17:27:16.939Z,68.99
2023-03-31T17:30:18.567Z,68.80
2023-03-31T17:33:20.424Z,68.78
2023-03-31T17:36:22.376Z,68.06
2023-03-31T17:39:23.824Z,67.33
2023-03-31T17:42:25.672Z,67.20
2023-03-31T17:45:27.217Z,67.68
2023-03-31T17:48:28.691Z,67.32
2023-03-31T17:51:34.372Z,67.09
2023-03-31T17:54:35.943Z,67.07
2023-03-31T17:57:38.933Z,66.21
2023-03-31T18:00:40.572Z,66.64
2023-03-31T18:03:42.384Z,66.99
2023-03-31T18:06:53.113Z,66.41
2023-03-31T18:09:54.786Z,65.88
2023-03-31T18:12:59.791Z,64.99
2023-03-31T18:16:05.260Z,63.80
2023-03-31T18:19:07.382Z,63.45
2023-03-31T18:22:09.948Z,63.79
2023-03-31T18:25:11.701Z,63.47
2023-03-31T18:28:15.087Z,63.59
2023-03-31T18:31:17.190Z,63.74
2023-03-31T18:34:19.537Z,63.38
2023-03-31T18:37:20.883Z,63.02
2023-03-31T18:40:22.471Z,63.59
2023-03-31T18:43:24.552Z,63.12
2023-03-31T18:46:25.953Z,62.92
2023-03-31T18:49:27.725Z,62.47
2023-03-31T18:52:29.161Z,62.91
2023-03-31T18:55:30.820Z,61.85
2023-03-31T18:58:32.404Z,61.57
2023-03-31T19:01:37.216Z,61.75
2023-03-31T19:04:38.852Z,61.85
2023-03-31T19:07:40.978Z,62.52
2023-03-31T19:10:42.666Z,62.64
2023-03-31T19:13:44.353Z,63.06
2023-03-31T19:16:45.860Z,64.40
2023-03-31T19:19:47.620Z,64.76
2023-03-31T19:22:50.796Z,67.20
2023-03-31T19:25:57.487Z,68.38
2023-03-31T19:28:58.930Z,69.29
2023-03-31T19:32:01.427Z,68.88
2023-03-31T19:35:02.920Z,69.46
2023-03-31T19:38:05.118Z,69.88
2023-03-31T19:41:06.628Z,69.94
2023-03-31T19:44:08.020Z,69.88
2023-03-31T19:47:09.443Z,68.85
2023-03-31T19:50:11.198Z,68.81
2023-03-31T19:53:13.679Z,68.63
2023-03-31T19:56:17.402Z,68.46
2023-03-31T19:59:19.044Z,67.58
2023-03-31T20:02:20.810Z,66.82
2023-03-31T20:05:22.357Z,66.64
2023-03-31T20:08:23.921Z,66.58
2023-03-31T20:11:26.888Z,66.09
2023-03-31T20:14:29.479Z,66.08
2023-03-31T20:17:30.941Z,65.83
2023-03-31T20:20:32.927Z,66.18
2023-03-31T20:23:34.925Z,65.09
2023-03-31T20:26:36.698Z,65.15
2023-03-31T20:29:38.328Z,64.92
2023-03-31T20:32:39.884Z,65.12
2023-03-31T20:35:41.829Z,65.81
2023-03-31T20:38:46.204Z,65.60
2023-03-31T20:41:49.509Z,66.05
2023-03-31T20:44:51.253Z,65.77
2023-03-31T20:47:52.741Z,65.71
2023-03-31T20:50:55.481Z,66.14
2023-03-31T20:53:59.048Z,65.84
2023-03-31T20:57:05.432Z,66.05
2023-03-31T21:00:07.572Z,66.13
2023-03-31T21:03:10.354Z,66.37
2023-03-31T21:06:14.173Z,66.83
2023-03-31T21:09:16.420Z,66.49
2023-03-31T21:12:17.769Z,66.65
2023-03-31T21:15:19.246Z,67.75
2023-03-31T21:18:20.853Z,69.63
2023-03-31T21:21:24.321Z,69.76
2023-03-31T21:24:26.413Z,69.98
2023-03-31T21:27:27.936Z,69.86
2023-03-31T21:30:29.389Z,69.64
2023-03-31T21:33:31.723Z,71.05
2023-03-31T21:36:33.412Z,70.58
2023-03-31T21:39:35.170Z,71.24
2023-03-31T21:42:37.422Z,71.66
2023-03-31T21:45:39.419Z,72.25
2023-03-31T21:48:40.808Z,72.95
2023-03-31T21:51:42.276Z,73.49
2023-03-31T21:54:46.679Z,72.41
2023-03-31T21:57:48.201Z,71.51
2023-03-31T22:00:49.588Z,71.30
2023-03-31T22:03:51.845Z,71.41
2023-03-31T22:06:53.326Z,71.20
2023-03-31T22:09:54.786Z,71.81
2023-03-31T22:12:56.311Z,71.90
2023-03-31T22:16:00.005Z,70.45
2023-03-31T22:19:01.521Z,70.32
2023-03-31T22:22:14.095Z,70.18
2023-03-31T22:25:15.686Z,69.65
2023-03-31T22:28:17.649Z,69.97
2023-03-31T22:31:19.304Z,68.75
2023-03-31T22:34:20.900Z,68.99
2023-03-31T22:37:22.405Z,68.80
2023-03-31T22:40:23.931Z,68.94
2023-03-31T22:43:25.436Z,68.25
2023-03-31T22:46:26.917Z,68.96
2023-03-31T22:49:28.347Z,67.70
2023-03-31T22:52:29.965Z,68.68
2023-03-31T22:55:31.650Z,69.64
2023-03-31T22:58:33.624Z,69.51
2023-03-31T23:01:35.181Z,68.06
2023-03-31T23:04:36.622Z,69.18
2023-03-31T23:07:38.553Z,68.24
2023-03-31T23:10:40.189Z,69.45
2023-03-31T23:13:41.739Z,68.76
2023-03-31T23:16:43.369Z,68.21
2023-03-31T23:19:47.596Z,69.01
2023-03-31T23:22:50.088Z,68.46
2023-03-31T23:25:51.488Z,67.97
2023-03-31T23:28:54.429Z,68.83
2023-03-31T23:31:55.960Z,68.98
2023-03-31T23:34:57.485Z,68.61
2023-03-31T23:37:58.949Z,68.14
2023-03-31T23:41:01.628Z,67.79
2023-03-31T23:44:03.120Z,67.23
2023-03-31T23:47:05.776Z,67.12
2023-03-31T23:50:09.107Z,67.94
2023-03-31T23:53:11.387Z,68.03
2023-03-31T23:56:13.099Z,67.59
2023-03-31T23:59:15.389Z,66.36
